createdAt,value
2018-12-08T00:00:59.762Z,99041.66
2018-12-08T00:03:33.045Z,99035.20
2018-12-08T00:06:06.360Z,99046.84
2018-12-08T00:08:40.037Z,99033.13
2018-12-08T00:11:13.063Z,99044.44
2018-12-08T00:13:47.770Z,99039.67
2018-12-08T00:16:22.221Z,99046.10
2018-12-08T00:18:56.817Z,99044.70
2018-12-08T00:21:30.671Z,99043.33
2018-12-08T00:24:06.132Z,99041.07
2018-12-08T00:26:39.711Z,99051.66
2018-12-08T00:29:12.652Z,99051.28
2018-12-08T00:31:48.337Z,99051.36
2018-12-08T00:34:21.314Z,99051.64
2018-12-08T00:36:54.341Z,99066.81
2018-12-08T00:39:27.915Z,99061.06
2018-12-08T00:42:00.972Z,99055.41
2018-12-08T00:44:34.068Z,99051.62
2018-12-08T00:47:07.346Z,99051.28
2018-12-08T00:49:41.609Z,99050.03
2018-12-08T00:52:16.383Z,99043.58
2018-12-08T00:54:51.471Z,99049.28
2018-12-08T00:57:25.363Z,99050.61
2018-12-08T01:00:03.194Z,99041.64
2018-12-08T01:02:36.118Z,99042.80
2018-12-08T01:05:09.023Z,99052.69
2018-12-08T01:07:42.098Z,99047.59
2018-12-08T01:10:15.031Z,99048.97
2018-12-08T01:12:48.971Z,99060.93
2018-12-08T01:15:23.576Z,99056.20
2018-12-08T01:17:56.474Z,99055.63
2018-12-08T01:20:30.021Z,99066.48
2018-12-08T01:23:03.477Z,99066.86
2018-12-08T01:25:36.400Z,99071.14
2018-12-08T01:28:10.245Z,99077.53
2018-12-08T01:30:43.606Z,99063.67
2018-12-08T01:33:19.619Z,99064.61
2018-12-08T01:35:52.655Z,99066.58
2018-12-08T01:38:27.177Z,99071.31
2018-12-08T01:41:00.100Z,99084.79
2018-12-08T01:43:33.088Z,99085.19
2018-12-08T01:46:09.503Z,99075.41
2018-12-08T01:48:43.338Z,99046.19
2018-12-08T01:51:16.580Z,99072.88
2018-12-08T01:53:50.428Z,99082.12
2018-12-08T01:56:24.179Z,99070.30
2018-12-08T01:58:57.115Z,99059.41
2018-12-08T02:01:31.504Z,99053.37
2018-12-08T02:04:04.513Z,99060.12
2018-12-08T02:06:39.455Z,99053.70
2018-12-08T02:09:14.529Z,99064.80
2018-12-08T02:11:47.727Z,99062.06
2018-12-08T02:14:21.011Z,99061.66
2018-12-08T02:16:54.858Z,99058.55
2018-12-08T02:19:28.755Z,99067.22
2018-12-08T02:22:01.705Z,99055.05
2018-12-08T02:24:35.116Z,99054.34
2018-12-08T02:27:08.120Z,99050.33
2018-12-08T02:29:41.841Z,99056.73
2018-12-08T02:32:15.397Z,99053.78
2018-12-08T02:34:48.468Z,99048.73
2018-12-08T02:37:21.468Z,99047.08
2018-12-08T02:39:56.011Z,99040.44
2018-12-08T02:42:29.077Z,99036.89
2018-12-08T02:45:04.292Z,99035.96
2018-12-08T02:47:37.281Z,99032.45
2018-12-08T02:50:10.316Z,99038.23
2018-12-08T02:52:43.389Z,99026.11
2018-12-08T02:55:16.325Z,99026.80
2018-12-08T02:57:49.830Z,99029.91
2018-12-08T03:00:23.407Z,99037.06
2018-12-08T03:02:56.600Z,99025.86
2018-12-08T03:05:30.047Z,99025.75
2018-12-08T03:08:03.148Z,99031.09
2018-12-08T03:10:36.130Z,99025.30
2018-12-08T03:13:09.568Z,99024.14
2018-12-08T03:15:42.560Z,99015.91
2018-12-08T03:18:15.540Z,99026.17
2018-12-08T03:20:49.449Z,99023.80
2018-12-08T03:23:22.498Z,99009.97
2018-12-08T03:25:55.553Z,99003.08
2018-12-08T03:28:29.068Z,99006.14
2018-12-08T03:31:03.036Z,99003.09
2018-12-08T03:33:36.109Z,98994.41
2018-12-08T03:36:09.540Z,98987.03
2018-12-08T03:38:42.522Z,98988.25
2018-12-08T03:41:15.456Z,98988.27
2018-12-08T03:43:50.858Z,98996.12
2018-12-08T03:46:24.633Z,98987.06
2018-12-08T03:48:57.665Z,98980.09
2018-12-08T03:51:32.397Z,98981.55
2018-12-08T03:54:05.547Z,98982.94
2018-12-08T03:56:38.599Z,98988.06
2018-12-08T03:59:12.677Z,98982.76
2018-12-08T04:01:45.544Z,98986.43
2018-12-08T04:04:18.509Z,98981.60
2018-12-08T04:06:51.890Z,98981.66
2018-12-08T04:09:25.143Z,98974.95
2018-12-08T04:11:59.163Z,98973.88
2018-12-08T04:14:33.824Z,98971.27
2018-12-08T04:17:06.670Z,98970.45
2018-12-08T04:19:39.707Z,98971.36
2018-12-08T04:22:13.059Z,98963.44
2018-12-08T04:24:46.118Z,98963.91
2018-12-08T04:27:19.039Z,98949.48
2018-12-08T04:29:52.467Z,98957.51
2018-12-08T04:32:25.418Z,98966.44
2018-12-08T04:34:58.379Z,98948.01
2018-12-08T04:37:31.700Z,98962.92
2018-12-08T04:40:05.591Z,98948.83
2018-12-08T04:42:39.142Z,98955.59
2018-12-08T04:45:15.124Z,98958.17
2018-12-08T04:47:48.036Z,98957.87
2018-12-08T04:50:20.935Z,98954.70
2018-12-08T04:52:54.240Z,98950.31
2018-12-08T04:55:27.273Z,98954.14
2018-12-08T04:58:00.191Z,98950.33
2018-12-08T05:00:34.643Z,98955.19
2018-12-08T05:03:07.673Z,98957.93
2018-12-08T05:05:40.669Z,98958.02
2018-12-08T05:08:16.050Z,98959.34
2018-12-08T05:10:49.353Z,98947.63
2018-12-08T05:13:22.496Z,98945.50
2018-12-08T05:15:56.046Z,98938.08
2018-12-08T05:18:29.064Z,98942.53
2018-12-08T05:21:02.113Z,98950.23
2018-12-08T05:23:39.888Z,98947.47
2018-12-08T05:26:12.916Z,98942.20
2018-12-08T05:28:46.059Z,98938.40
2018-12-08T05:31:19.507Z,98938.55
2018-12-08T05:33:52.798Z,98937.86
2018-12-08T05:36:25.945Z,98940.84
2018-12-08T05:38:59.284Z,98934.78
2018-12-08T05:41:32.296Z,98926.05
2018-12-08T05:44:06.346Z,98925.81
2018-12-08T05:46:42.554Z,98931.45
2018-12-08T05:49:15.832Z,98925.95
2018-12-08T05:51:49.684Z,98927.60
2018-12-08T05:54:23.585Z,98912.74
2018-12-08T05:56:56.531Z,98926.37
2018-12-08T05:59:29.620Z,98916.09
2018-12-08T06:02:04.185Z,98920.88
2018-12-08T06:04:37.444Z,98926.15
2018-12-08T06:07:10.524Z,98931.17
2018-12-08T06:09:44.221Z,98923.17
2018-12-08T06:12:17.990Z,98926.22
2018-12-08T06:14:50.804Z,98919.59
2018-12-08T06:17:25.540Z,98915.77
2018-12-08T06:19:58.839Z,98924.44
2018-12-08T06:22:31.684Z,98934.42
2018-12-08T06:25:07.383Z,98919.50
2018-12-08T06:28:01.921Z,98909.83
2018-12-08T06:30:35.459Z,98912.67
2018-12-08T06:33:09.482Z,98904.59
2018-12-08T06:35:44.076Z,98888.92
2018-12-08T06:38:20.036Z,98912.19
2018-12-08T06:40:55.192Z,98907.12
2018-12-08T06:43:29.296Z,98891.38
2018-12-08T06:46:03.116Z,98911.34
2018-12-08T06:48:36.010Z,98902.06
2018-12-08T06:51:09.458Z,98899.62
2018-12-08T06:53:42.422Z,98896.63
2018-12-08T06:56:15.423Z,98915.55
2018-12-08T06:58:49.002Z,98897.59
2018-12-08T07:01:21.963Z,98888.28
2018-12-08T07:03:54.964Z,98894.64
2018-12-08T07:06:28.407Z,98883.36
2018-12-08T07:09:01.360Z,98879.54
2018-12-08T07:11:34.481Z,98873.27
2018-12-08T07:14:09.960Z,98869.34
2018-12-08T07:16:44.240Z,98870.80
2018-12-08T07:19:17.262Z,98874.22
2018-12-08T07:21:51.617Z,98870.35
2018-12-08T07:24:24.442Z,98874.33
2018-12-08T07:26:57.313Z,98862.89
2018-12-08T07:29:32.540Z,98873.98
2018-12-08T07:32:05.671Z,98864.70
2018-12-08T07:34:38.975Z,98877.23
2018-12-08T07:37:12.527Z,98878.05
2018-12-08T07:39:46.394Z,98860.50
2018-12-08T07:42:19.272Z,98875.81
2018-12-08T07:44:54.769Z,98856.34
2018-12-08T07:47:28.996Z,98878.27
2018-12-08T07:50:02.776Z,98870.11
2018-12-08T07:52:38.305Z,98860.07
2018-12-08T07:55:11.485Z,98865.94
2018-12-08T07:57:44.364Z,98859.40
2018-12-08T08:00:19.873Z,98874.09
2018-12-08T08:02:52.837Z,98860.63
2018-12-08T08:05:25.857Z,98860.58
2018-12-08T08:08:00.009Z,98849.73
2018-12-08T08:10:35.835Z,98849.15
2018-12-08T08:13:09.105Z,98858.48
2018-12-08T08:15:43.464Z,98846.39
2018-12-08T08:18:16.397Z,98845.33
2018-12-08T08:20:51.126Z,98848.75
2018-12-08T08:23:30.005Z,98841.06
2018-12-08T08:26:04.951Z,98850.13
2018-12-08T08:28:41.453Z,98847.94
2018-12-08T08:31:14.924Z,98828.58
2018-12-08T08:33:49.891Z,98835.39
2018-12-08T08:36:24.607Z,98842.09
2018-12-08T08:39:00.298Z,98833.56
2018-12-08T08:41:35.133Z,98848.75
2018-12-08T08:44:09.750Z,98839.45
2018-12-08T08:46:46.527Z,98836.33
2018-12-08T08:49:21.354Z,98836.48
2018-12-08T08:51:54.732Z,98844.36
2018-12-08T08:54:31.609Z,98833.74
2018-12-08T08:57:06.366Z,98835.42
2018-12-08T08:59:40.331Z,98832.95
2018-12-08T09:02:13.902Z,98838.96
2018-12-08T09:04:49.144Z,98824.50
2018-12-08T09:07:25.194Z,98832.05
2018-12-08T09:09:58.876Z,98831.08
2018-12-08T09:12:31.959Z,98818.39
2018-12-08T09:15:15.662Z,98822.34
2018-12-08T09:17:49.654Z,98820.59
2018-12-08T09:20:25.063Z,98825.77
2018-12-08T09:23:00.165Z,98834.42
2018-12-08T09:25:34.530Z,98828.55
2018-12-08T09:28:08.099Z,98822.10
2018-12-08T09:30:41.076Z,98827.54
2018-12-08T09:33:15.352Z,98828.13
2018-12-08T09:35:49.915Z,98825.05
2018-12-08T09:38:25.824Z,98824.88
2018-12-08T09:40:59.476Z,98810.78
2018-12-08T09:43:41.645Z,98816.03
2018-12-08T09:46:16.604Z,98811.69
2018-12-08T09:48:50.430Z,98820.31
2018-12-08T09:51:24.150Z,98827.86
2018-12-08T09:53:58.044Z,98851.22
2018-12-08T09:56:31.023Z,98818.67
2018-12-08T09:59:04.680Z,98812.91
2018-12-08T10:01:39.672Z,98818.55
2018-12-08T10:04:12.700Z,98808.19
2018-12-08T10:06:48.857Z,98819.44
2018-12-08T10:09:23.562Z,98815.22
2018-12-08T10:11:56.735Z,98818.56
2018-12-08T10:14:33.469Z,98802.89
2018-12-08T10:17:06.963Z,98813.68
2018-12-08T10:19:40.591Z,98798.25
2018-12-08T10:22:16.471Z,98807.19
2018-12-08T10:24:50.071Z,98799.23
2018-12-08T10:27:24.519Z,98824.92
2018-12-08T10:30:00.848Z,98809.00
2018-12-08T10:32:36.555Z,98819.06
2018-12-08T10:35:13.394Z,98817.58
2018-12-08T10:37:47.236Z,98806.87
2018-12-08T10:40:22.650Z,98814.41
2018-12-08T10:42:59.800Z,98808.56
2018-12-08T10:45:34.572Z,98823.62
2018-12-08T10:48:10.908Z,98823.73
2018-12-08T10:50:45.594Z,98828.20
2018-12-08T10:53:22.176Z,98815.52
2018-12-08T10:55:56.417Z,98825.11
2018-12-08T10:58:31.362Z,98820.18
2018-12-08T11:01:07.215Z,98818.63
2018-12-08T11:03:53.342Z,98808.84
2018-12-08T11:06:29.538Z,98810.67
2018-12-08T11:09:04.775Z,98812.86
2018-12-08T11:11:43.039Z,98815.22
2018-12-08T11:14:17.075Z,98812.25
2018-12-08T11:16:52.074Z,98821.75
2018-12-08T11:19:27.796Z,98815.90
2018-12-08T11:22:01.508Z,98823.35
2018-12-08T11:24:38.558Z,98824.08
2018-12-08T11:27:12.694Z,98830.34
2018-12-08T11:29:47.868Z,98819.31
2018-12-08T11:32:20.863Z,98850.33
2018-12-08T11:34:57.724Z,98845.47
2018-12-08T11:37:31.551Z,98833.22
2018-12-08T11:40:08.073Z,98834.09
2018-12-08T11:42:44.395Z,98832.56
2018-12-08T11:45:18.570Z,98826.11
2018-12-08T11:47:52.797Z,98834.77
2018-12-08T11:50:35.214Z,98835.16
2018-12-08T11:53:08.684Z,98834.45
2018-12-08T11:55:44.820Z,98836.97
2018-12-08T11:58:20.060Z,98828.09
2018-12-08T12:00:53.283Z,98838.09
2018-12-08T12:03:28.033Z,98836.39
2018-12-08T12:06:03.584Z,98829.14
2018-12-08T12:08:36.618Z,98839.64
2018-12-08T12:11:10.727Z,98823.03
2018-12-08T12:13:45.263Z,98830.20
2018-12-08T12:16:23.015Z,98833.23
2018-12-08T12:18:56.142Z,98829.39
2018-12-08T12:21:32.481Z,98826.49
2018-12-08T12:24:06.566Z,98828.02
2018-12-08T12:26:41.477Z,98805.92
2018-12-08T12:29:17.462Z,98834.97
2018-12-08T12:31:54.063Z,98823.36
2018-12-08T12:34:28.112Z,98826.97
2018-12-08T12:37:01.769Z,98826.25
2018-12-08T12:39:37.775Z,98828.09
2018-12-08T12:42:10.740Z,98819.23
2018-12-08T12:44:47.067Z,98832.66
2018-12-08T12:47:20.599Z,98825.84
2018-12-08T12:49:53.709Z,98817.56
2018-12-08T12:52:27.171Z,98825.41
2018-12-08T12:55:00.324Z,98813.99
2018-12-08T12:57:33.332Z,98825.00
2018-12-08T13:00:15.510Z,98816.44
2018-12-08T13:02:48.556Z,98818.28
2018-12-08T13:05:23.671Z,98829.26
2018-12-08T13:07:57.572Z,98814.39
2018-12-08T13:10:32.753Z,98827.97
2018-12-08T13:13:06.212Z,98830.46
2018-12-08T13:15:39.483Z,98828.16
2018-12-08T13:18:12.592Z,98823.42
2018-12-08T13:20:46.690Z,98819.58
2018-12-08T13:23:20.362Z,98820.25
2018-12-08T13:25:53.958Z,98818.78
2018-12-08T13:28:27.944Z,98828.78
2018-12-08T13:31:02.927Z,98825.31
2018-12-08T13:33:36.929Z,98817.98
2018-12-08T13:36:31.983Z,98816.94
2018-12-08T13:39:07.078Z,98839.38
2018-12-08T13:41:41.364Z,98810.69
2018-12-08T13:44:36.660Z,98801.31
2018-12-08T13:47:09.674Z,98809.77
2018-12-08T13:49:44.446Z,98805.33
2018-12-08T13:52:19.436Z,98798.98
2018-12-08T13:54:53.187Z,98795.14
2018-12-08T13:57:26.539Z,98790.83
2018-12-08T13:59:59.671Z,98798.03
2018-12-08T14:02:34.861Z,98790.58
2018-12-08T14:05:09.387Z,98795.87
2018-12-08T14:07:43.808Z,98793.55
2018-12-08T14:10:16.973Z,98783.53
2018-12-08T14:12:51.428Z,98776.70
2018-12-08T14:15:25.772Z,98798.02
2018-12-08T14:17:58.913Z,98784.30
2018-12-08T14:20:34.532Z,98786.41
2018-12-08T14:23:08.858Z,98808.29
2018-12-08T14:25:42.919Z,98791.70
2018-12-08T14:28:21.402Z,98796.83
2018-12-08T14:30:55.297Z,98793.79
2018-12-08T14:33:29.209Z,98791.39
2018-12-08T14:36:03.737Z,98790.66
2018-12-08T14:38:38.124Z,98792.45
2018-12-08T14:41:11.266Z,98795.40
2018-12-08T14:43:44.313Z,98786.73
2018-12-08T14:46:17.854Z,98789.47
2018-12-08T14:48:51.212Z,98788.80
2018-12-08T14:51:25.796Z,98784.99
2018-12-08T14:54:00.985Z,98786.58
2018-12-08T14:56:35.637Z,98789.70
2018-12-08T14:59:10.012Z,98787.91
2018-12-08T15:01:46.818Z,98785.64
2018-12-08T15:04:20.847Z,98789.95
2018-12-08T15:06:56.864Z,98780.38
2018-12-08T15:09:32.065Z,98784.38
2018-12-08T15:12:07.712Z,98778.89
2018-12-08T15:14:41.955Z,98771.93
2018-12-08T15:17:15.942Z,98772.34
2018-12-08T15:19:50.388Z,98776.33
2018-12-08T15:22:24.710Z,98771.38
2018-12-08T15:24:58.352Z,98767.30
2018-12-08T15:27:35.528Z,98762.30
2018-12-08T15:30:19.498Z,98758.16
2018-12-08T15:32:53.381Z,98760.31
2018-12-08T15:35:28.338Z,98765.81
2018-12-08T15:38:01.338Z,98770.81
2018-12-08T15:40:36.121Z,98758.23
2018-12-08T15:43:09.756Z,98755.84
2018-12-08T15:45:42.952Z,98766.55
2018-12-08T15:48:16.136Z,98761.54
2018-12-08T15:50:49.947Z,98756.65
2018-12-08T15:53:26.865Z,98756.25
2018-12-08T15:56:00.813Z,98747.51
2018-12-08T15:58:35.463Z,98747.80
2018-12-08T16:01:10.719Z,98743.58
2018-12-08T16:03:45.425Z,98744.47
2018-12-08T16:06:19.089Z,98740.02
2018-12-08T16:08:53.023Z,98734.61
2018-12-08T16:11:26.972Z,98732.64
2018-12-08T16:14:03.384Z,98736.84
2018-12-08T16:16:41.122Z,98730.30
2018-12-08T16:19:15.136Z,98704.58
2018-12-08T16:21:52.724Z,98719.05
2018-12-08T16:24:26.595Z,98708.64
2018-12-08T16:27:03.922Z,98693.03
2018-12-08T16:29:39.579Z,98701.00
2018-12-08T16:32:15.209Z,98694.53
2018-12-08T16:34:55.327Z,98686.08
2018-12-08T16:37:30.901Z,98687.71
2018-12-08T16:40:07.142Z,98684.89
2018-12-08T16:42:46.787Z,98675.20
2018-12-08T16:45:20.769Z,98673.64
2018-12-08T16:47:56.347Z,98671.58
2018-12-08T16:50:31.992Z,98665.27
2018-12-08T16:53:08.273Z,98663.58
2018-12-08T16:55:41.979Z,98648.14
2018-12-08T16:58:15.433Z,98650.91
2018-12-08T17:00:50.869Z,98638.49
2018-12-08T17:03:26.372Z,98648.68
2018-12-08T17:06:00.439Z,98636.70
2018-12-08T17:08:33.498Z,98639.64
2018-12-08T17:11:08.926Z,98638.67
2018-12-08T17:13:43.573Z,98636.37
2018-12-08T17:16:17.210Z,98627.38
2018-12-08T17:18:51.921Z,98617.53
2018-12-08T17:21:29.651Z,98608.52
2018-12-08T17:24:03.553Z,98603.82
2018-12-08T17:26:44.070Z,98600.33
2018-12-08T17:29:19.229Z,98599.55
2018-12-08T17:31:53.216Z,98588.01
2018-12-08T17:34:27.822Z,98582.68
2018-12-08T17:37:03.443Z,98578.09
2018-12-08T17:39:40.844Z,98559.28
2018-12-08T17:42:16.806Z,98560.10
2018-12-08T17:44:50.787Z,98559.80
2018-12-08T17:47:27.015Z,98557.94
2018-12-08T17:50:01.423Z,98552.57
2018-12-08T17:52:36.172Z,98535.94
2018-12-08T17:55:11.510Z,98533.88
2018-12-08T17:58:06.386Z,98514.54
2018-12-08T18:00:42.007Z,98512.09
2018-12-08T18:03:16.597Z,98507.58
2018-12-08T18:05:52.745Z,98503.77
2018-12-08T18:08:29.157Z,98491.89
2018-12-08T18:11:03.718Z,98474.26
2018-12-08T18:13:37.628Z,98466.83
2018-12-08T18:16:12.335Z,98467.90
2018-12-08T18:18:46.807Z,98469.69
2018-12-08T18:21:22.665Z,98456.33
2018-12-08T18:23:59.038Z,98455.97
2018-12-08T18:26:33.364Z,98441.45
2018-12-08T18:29:17.597Z,98437.51
2018-12-08T18:31:51.660Z,98424.25
2018-12-08T18:34:25.642Z,98426.31
2018-12-08T18:36:58.934Z,98423.82
2018-12-08T18:39:32.007Z,98420.27
2018-12-08T18:42:05.833Z,98410.66
2018-12-08T18:44:40.134Z,98391.86
2018-12-08T18:47:15.203Z,98395.84
2018-12-08T18:49:50.859Z,98388.78
2018-12-08T18:52:25.607Z,98367.20
2018-12-08T18:55:03.784Z,98353.52
2018-12-08T18:57:37.565Z,98348.81
2018-12-08T19:00:15.008Z,98343.97
2018-12-08T19:02:48.728Z,98340.52
2018-12-08T19:05:26.546Z,98325.03
2018-12-08T19:08:00.779Z,98311.08
2018-12-08T19:10:37.512Z,98321.52
2018-12-08T19:13:10.548Z,98303.52
2018-12-08T19:15:46.070Z,98296.89
2018-12-08T19:18:20.091Z,98292.26
2018-12-08T19:20:55.705Z,98280.33
2018-12-08T19:23:34.068Z,98275.00
2018-12-08T19:26:12.374Z,98260.42
2018-12-08T19:28:46.157Z,98242.13
2018-12-08T19:31:19.952Z,98250.25
2018-12-08T19:33:56.129Z,98239.05
2018-12-08T19:36:31.573Z,98231.83
2018-12-08T19:39:07.310Z,98207.05
2018-12-08T19:41:40.958Z,98208.44
2018-12-08T19:44:14.912Z,98194.67
2018-12-08T19:46:48.972Z,98187.61
2018-12-08T19:49:23.030Z,98176.84
2018-12-08T19:51:57.144Z,98160.99
2018-12-08T19:54:30.306Z,98156.67
2018-12-08T19:57:07.286Z,98138.88
2018-12-08T19:59:43.332Z,98138.63
2018-12-08T20:02:19.163Z,98139.20
2018-12-08T20:04:54.456Z,98138.02
2018-12-08T20:07:30.023Z,98123.67
2018-12-08T20:10:05.627Z,98116.91
2018-12-08T20:12:42.346Z,98108.18
2018-12-08T20:15:16.843Z,98103.80
2018-12-08T20:17:50.531Z,98106.60
2018-12-08T20:20:26.911Z,98106.73
2018-12-08T20:23:00.496Z,98105.05
2018-12-08T20:25:34.874Z,98094.34
2018-12-08T20:28:10.476Z,98077.84
2018-12-08T20:30:44.412Z,98061.19
2018-12-08T20:33:22.267Z,98035.73
2018-12-08T20:35:56.810Z,98021.63
2018-12-08T20:38:30.615Z,98011.22
2018-12-08T20:41:07.434Z,97998.94
2018-12-08T20:43:43.125Z,98007.94
2018-12-08T20:46:17.348Z,97997.09
2018-12-08T20:48:55.768Z,97995.94
2018-12-08T20:51:29.835Z,97998.86
2018-12-08T20:54:04.198Z,97995.38
2018-12-08T20:56:38.269Z,97997.52
2018-12-08T20:59:13.367Z,97993.41
2018-12-08T21:01:47.484Z,97977.19
2018-12-08T21:04:28.125Z,97968.67
2018-12-08T21:07:02.762Z,97954.77
2018-12-08T21:09:52.500Z,97965.39
2018-12-08T21:12:27.928Z,97946.73
2018-12-08T21:15:01.084Z,97968.13
2018-12-08T21:17:39.716Z,97966.33
2018-12-08T21:20:14.024Z,97975.15
2018-12-08T21:22:48.409Z,97963.07
2018-12-08T21:25:22.434Z,97969.33
2018-12-08T21:27:57.887Z,97939.26
2018-12-08T21:30:34.011Z,97953.69
2018-12-08T21:33:07.960Z,97963.45
2018-12-08T21:35:44.643Z,97952.08
2018-12-08T21:38:18.133Z,97949.14
2018-12-08T21:40:51.136Z,97946.14
2018-12-08T21:43:24.932Z,97943.00
2018-12-08T21:45:59.479Z,97951.03
2018-12-08T21:48:32.579Z,97961.03
2018-12-08T21:51:05.765Z,97945.16
2018-12-08T21:53:41.542Z,97954.02
2018-12-08T21:56:20.736Z,97969.72
2018-12-08T21:58:55.315Z,97945.72
2018-12-08T22:01:32.189Z,97952.42
2018-12-08T22:04:07.602Z,97949.84
2018-12-08T22:06:43.209Z,97930.17
2018-12-08T22:09:25.366Z,97927.84
2018-12-08T22:11:59.732Z,97918.14
2018-12-08T22:14:57.590Z,97920.48
2018-12-08T22:17:33.853Z,97926.08
2018-12-08T22:20:07.197Z,97919.02
2018-12-08T22:22:42.077Z,97931.98
2018-12-08T22:25:16.788Z,97931.58
2018-12-08T22:27:51.956Z,97918.33
2018-12-08T22:30:30.846Z,97903.30
2018-12-08T22:33:04.086Z,97904.46
2018-12-08T22:35:40.181Z,97920.20
2018-12-08T22:38:14.307Z,97916.06
2018-12-08T22:40:47.451Z,97912.74
2018-12-08T22:43:22.136Z,97919.08
2018-12-08T22:45:55.920Z,97908.52
2018-12-08T22:48:29.016Z,97921.88
2018-12-08T22:51:04.666Z,97917.19
2018-12-08T22:53:39.260Z,97924.75
2018-12-08T22:56:12.310Z,97918.33
2018-12-08T22:58:46.877Z,97909.05
2018-12-08T23:01:21.851Z,97931.68
2018-12-08T23:03:55.681Z,97919.66
2018-12-08T23:06:32.844Z,97916.31
2018-12-08T23:09:07.582Z,97912.87
2018-12-08T23:11:40.712Z,97904.14
2018-12-08T23:14:16.218Z,97897.09
2018-12-08T23:16:50.802Z,97899.43
2018-12-08T23:19:38.590Z,97897.91
2018-12-08T23:22:12.249Z,97887.80
2018-12-08T23:24:45.843Z,97881.66
2018-12-08T23:27:21.882Z,97882.63
2018-12-08T23:30:00.277Z,97895.03
2018-12-08T23:32:36.937Z,97880.73
2018-12-08T23:35:11.650Z,97885.39
2018-12-08T23:37:45.932Z,97869.56
2018-12-08T23:40:19.832Z,97895.19
2018-12-08T23:42:52.845Z,97866.03
2018-12-08T23:45:27.660Z,97865.74
2018-12-08T23:48:02.605Z,97861.63
2018-12-08T23:50:35.652Z,97866.24
2018-12-08T23:53:09.225Z,97875.63
2018-12-08T23:55:42.386Z,97878.77
2018-12-08T23:58:15.336Z,97865.63
